Time,TemperatureF,DewpointF,PressureIn,WindDirection,WindDirectionDegrees,WindSpeedMPH,WindSpeedGustMPH,Humidity,HourlyPrecipIn,Conditions,Clouds,dailyrainin,SolarRadiationWatts/m^2,SoftwareType,DateUTC
2013-07-26 00:12:00,53.0,42.0,-100.00,WNW,289,0.0,6.0,65,0.00,,,0.00,0.000000,,2013-07-26 06:12:00,
2013-07-26 00:22:00,53.0,42.0,-100.00,WNW,289,0.0,6.0,65,0.00,,,0.00,0.000000,,2013-07-26 06:22:00,
2013-07-26 00:33:00,53.0,42.0,-100.00,WNW,289,0.0,6.0,65,0.00,,,0.00,0.000000,,2013-07-26 06:33:00,
2013-07-26 00:40:00,55.0,41.0,-100.00,SSW,204,6.0,9.0,59,0.00,,,0.00,0.000000,,2013-07-26 06:40:00,
2013-07-26 01:12:00,55.0,41.0,-100.00,SSW,204,6.0,9.0,59,0.00,,,0.00,0.000000,,2013-07-26 07:12:00,
2013-07-26 01:22:00,55.0,41.0,-100.00,SSW,204,6.0,9.0,59,0.00,,,0.00,0.000000,,2013-07-26 07:22:00,
2013-07-26 01:32:00,55.0,41.0,-100.00,SSW,204,6.0,9.0,59,0.00,,,0.00,0.000000,,2013-07-26 07:32:00,
2013-07-26 01:40:00,55.0,39.0,-100.00,SE,124,2.0,10.0,54,0.00,,,0.00,0.000000,,2013-07-26 07:40:00,
2013-07-26 02:12:00,55.0,39.0,-100.00,SE,124,2.0,10.0,54,0.00,,,0.00,0.000000,,2013-07-26 08:12:00,
2013-07-26 02:22:00,55.0,39.0,-100.00,SE,124,2.0,10.0,54,0.00,,,0.00,0.000000,,2013-07-26 08:22:00,
2013-07-26 02:32:00,55.0,39.0,-100.00,SE,124,2.0,10.0,54,0.00,,,0.00,0.000000,,2013-07-26 08:32:00,
2013-07-26 02:40:00,54.0,40.0,-100.00,West,263,2.0,11.0,58,0.00,,,0.00,0.000000,,2013-07-26 08:40:00,
2013-07-26 03:12:00,54.0,40.0,-100.00,West,263,2.0,11.0,58,0.00,,,0.00,0.000000,,2013-07-26 09:12:00,
2013-07-26 03:22:00,54.0,40.0,-100.00,West,263,2.0,11.0,58,0.00,,,0.00,0.000000,,2013-07-26 09:22:00,
2013-07-26 03:32:00,54.0,40.0,-100.00,West,263,2.0,11.0,58,0.00,,,0.00,0.000000,,2013-07-26 09:32:00,
2013-07-26 03:40:00,52.0,41.0,-100.00,ESE,123,3.0,16.0,67,0.00,,,0.00,0.000000,,2013-07-26 09:40:00,
2013-07-26 04:12:00,52.0,41.0,-100.00,ESE,123,3.0,16.0,67,0.00,,,0.00,0.000000,,2013-07-26 10:12:00,
2013-07-26 04:22:00,52.0,41.0,-100.00,ESE,123,3.0,16.0,67,0.00,,,0.00,0.000000,,2013-07-26 10:22:00,
2013-07-26 04:33:00,52.0,41.0,-100.00,ESE,123,3.0,16.0,67,0.00,,,0.00,0.000000,,2013-07-26 10:33:00,
2013-07-26 04:40:00,53.0,41.0,-100.00,SSW,213,9.0,15.0,63,0.00,,,0.00,0.000000,,2013-07-26 10:40:00,
2013-07-26 05:02:00,53.0,41.0,-100.00,SSW,213,9.0,15.0,63,0.00,,,0.00,0.000000,,2013-07-26 11:02:00,
2013-07-26 05:12:00,53.0,41.0,-100.00,SSW,213,9.0,15.0,63,0.00,,,0.00,0.000000,,2013-07-26 11:12:00,
2013-07-26 05:22:00,53.0,41.0,-100.00,SSW,213,9.0,15.0,63,0.00,,,0.00,0.000000,,2013-07-26 11:22:00,
2013-07-26 05:32:00,53.0,41.0,-100.00,SSW,213,9.0,15.0,63,0.00,,,0.00,0.000000,,2013-07-26 11:32:00,
2013-07-26 05:40:00,53.0,40.0,-100.00,ESE,120,2.0,16.0,62,0.00,,,0.00,0.000000,,2013-07-26 11:40:00,
2013-07-26 06:02:00,53.0,40.0,-100.00,ESE,120,2.0,16.0,62,0.00,,,0.00,0.000000,,2013-07-26 12:02:00,
2013-07-26 06:12:00,53.0,40.0,-100.00,ESE,120,2.0,16.0,62,0.00,,,0.00,0.000000,,2013-07-26 12:12:00,
2013-07-26 06:22:00,53.0,40.0,-100.00,ESE,120,2.0,16.0,62,0.00,,,0.00,0.000000,,2013-07-26 12:22:00,
2013-07-26 06:33:00,53.0,40.0,-100.00,ESE,120,2.0,16.0,62,0.00,,,0.00,0.000000,,2013-07-26 12:33:00,
2013-07-26 06:40:00,56.0,39.0,-100.00,SW,217,7.0,14.0,53,0.00,,,0.00,20.000000,,2013-07-26 12:40:00,
2013-07-26 07:02:00,56.0,39.0,-100.00,SW,217,7.0,14.0,53,0.00,,,0.00,20.000000,,2013-07-26 13:02:00,
2013-07-26 07:12:00,56.0,39.0,-100.00,SW,217,7.0,14.0,53,0.00,,,0.00,20.000000,,2013-07-26 13:12:00,
2013-07-26 07:22:00,56.0,39.0,-100.00,SW,217,7.0,14.0,53,0.00,,,0.00,20.000000,,2013-07-26 13:22:00,
2013-07-26 07:32:00,56.0,39.0,-100.00,SW,217,7.0,14.0,53,0.00,,,0.00,20.000000,,2013-07-26 13:32:00,
2013-07-26 08:40:00,65.0,43.0,-100.00,ENE,71,2.0,5.0,44,-99.99,,,0.00,410.000000,,2013-07-26 14:40:00,
2013-07-26 11:33:00,72.0,50.0,-100.00,NNE,28,2.0,7.0,46,0.00,,,0.00,834.000000,,2013-07-26 17:33:00,
2013-07-26 11:40:00,69.0,47.0,-100.00,East,79,4.0,9.0,46,0.00,,,0.00,950.000000,,2013-07-26 17:40:00,
2013-07-26 12:12:00,69.0,47.0,-100.00,East,79,4.0,9.0,46,0.00,,,0.00,950.000000,,2013-07-26 18:12:00,
2013-07-26 12:22:00,69.0,47.0,-100.00,East,79,4.0,9.0,46,0.00,,,0.00,950.000000,,2013-07-26 18:22:00,
2013-07-26 12:33:00,69.0,47.0,-100.00,East,79,4.0,9.0,46,0.00,,,0.00,950.000000,,2013-07-26 18:33:00,
2013-07-26 12:40:00,70.0,49.0,-100.00,NNE,31,5.0,10.0,47,0.00,,,0.00,1107.000000,,2013-07-26 18:40:00,
2013-07-26 13:02:00,70.0,49.0,-100.00,NNE,31,5.0,10.0,47,0.00,,,0.00,1107.000000,,2013-07-26 19:02:00,
2013-07-26 13:12:00,70.0,49.0,-100.00,NNE,31,5.0,10.0,47,0.00,,,0.00,1107.000000,,2013-07-26 19:12:00,
2013-07-26 13:22:00,70.0,49.0,-100.00,NNE,31,5.0,10.0,47,0.00,,,0.00,1107.000000,,2013-07-26 19:22:00,
2013-07-26 13:32:00,70.0,49.0,-100.00,NNE,31,5.0,10.0,47,0.00,,,0.00,1107.000000,,2013-07-26 19:32:00,
2013-07-26 13:40:00,73.0,48.0,-100.00,NE,43,5.0,10.0,41,0.00,,,-99.99,1185.000000,,2013-07-26 19:40:00,
2013-07-26 14:02:00,73.0,48.0,-100.00,NE,43,5.0,10.0,41,0.00,,,-99.99,1185.000000,,2013-07-26 20:02:00,
2013-07-26 14:12:00,73.0,48.0,-100.00,NE,43,5.0,10.0,41,0.00,,,-99.99,1185.000000,,2013-07-26 20:12:00,
2013-07-26 14:22:00,73.0,48.0,-100.00,NE,43,5.0,10.0,41,0.00,,,-99.99,1185.000000,,2013-07-26 20:22:00,
2013-07-26 14:32:00,73.0,48.0,-100.00,NE,43,5.0,10.0,41,0.00,,,-99.99,1185.000000,,2013-07-26 20:32:00,
2013-07-26 14:40:00,73.0,47.0,-100.00,NNE,14,5.0,12.0,39,0.00,,,0.00,1163.000000,,2013-07-26 20:40:00,
2013-07-26 15:02:00,73.0,47.0,-100.00,NNE,14,5.0,12.0,39,0.00,,,0.00,1163.000000,,2013-07-26 21:02:00,
2013-07-26 15:12:00,73.0,47.0,-100.00,NNE,14,5.0,12.0,39,0.00,,,0.00,1163.000000,,2013-07-26 21:12:00,
2013-07-26 15:22:00,73.0,47.0,-100.00,NNE,14,5.0,12.0,39,0.00,,,0.00,1163.000000,,2013-07-26 21:22:00,
2013-07-26 15:32:00,73.0,47.0,-100.00,NNE,14,5.0,12.0,39,0.00,,,0.00,1163.000000,,2013-07-26 21:32:00,
2013-07-26 15:40:00,72.0,41.0,-100.00,ENE,74,6.0,17.0,32,0.00,,,0.00,1006.000000,,2013-07-26 21:40:00,
2013-07-26 16:02:00,72.0,41.0,-100.00,ENE,74,6.0,17.0,32,0.00,,,0.00,1006.000000,,2013-07-26 22:02:00,
2013-07-26 16:12:00,72.0,41.0,-100.00,ENE,74,6.0,17.0,32,0.00,,,0.00,1006.000000,,2013-07-26 22:12:00,
2013-07-26 16:22:00,72.0,41.0,-100.00,ENE,74,6.0,17.0,32,0.00,,,0.00,1006.000000,,2013-07-26 22:22:00,
2013-07-26 16:33:00,72.0,41.0,-100.00,ENE,74,6.0,17.0,32,0.00,,,0.00,1006.000000,,2013-07-26 22:33:00,
2013-07-26 16:40:00,72.0,38.0,-100.00,NNE,27,6.0,13.0,29,0.00,,,0.00,895.000000,,2013-07-26 22:40:00,
2013-07-26 17:02:00,72.0,38.0,-100.00,NNE,27,6.0,13.0,29,0.00,,,0.00,895.000000,,2013-07-26 23:02:00,
2013-07-26 17:12:00,72.0,38.0,-100.00,NNE,27,6.0,13.0,29,0.00,,,0.00,895.000000,,2013-07-26 23:12:00,
2013-07-26 17:22:00,72.0,38.0,-100.00,NNE,27,6.0,13.0,29,0.00,,,0.00,895.000000,,2013-07-26 23:22:00,
2013-07-26 17:32:00,72.0,38.0,-100.00,NNE,27,6.0,13.0,29,0.00,,,0.00,895.000000,,2013-07-26 23:32:00,
2013-07-26 17:40:00,72.0,37.0,-100.00,ESE,114,5.0,12.0,28,0.00,,,0.00,814.000000,,2013-07-26 23:40:00,
2013-07-26 18:02:00,72.0,37.0,-100.00,ESE,114,5.0,12.0,28,0.00,,,0.00,814.000000,,2013-07-27 00:02:00,
2013-07-26 18:12:00,72.0,37.0,-100.00,ESE,114,5.0,12.0,28,0.00,,,0.00,814.000000,,2013-07-27 00:12:00,
2013-07-26 18:22:00,72.0,37.0,-100.00,ESE,114,5.0,12.0,28,0.00,,,0.00,814.000000,,2013-07-27 00:22:00,
2013-07-26 18:32:00,72.0,37.0,-100.00,ESE,114,5.0,12.0,28,0.00,,,0.00,814.000000,,2013-07-27 00:32:00,
2013-07-26 18:40:00,69.0,38.0,-100.00,ENE,67,4.0,11.0,32,0.00,,,0.00,403.000000,,2013-07-27 00:40:00,
2013-07-26 19:12:00,69.0,38.0,-100.00,ENE,67,4.0,11.0,32,0.00,,,0.00,403.000000,,2013-07-27 01:12:00,
2013-07-26 19:22:00,69.0,38.0,-100.00,ENE,67,4.0,11.0,32,0.00,,,0.00,403.000000,,2013-07-27 01:22:00,
2013-07-26 19:32:00,69.0,38.0,-100.00,ENE,67,4.0,11.0,32,0.00,,,0.00,403.000000,,2013-07-27 01:32:00,
2013-07-26 19:40:00,64.0,37.0,-100.00,ENE,68,2.0,9.0,36,0.00,,,0.00,235.000000,,2013-07-27 01:40:00,
2013-07-26 20:02:00,64.0,37.0,-100.00,ENE,68,2.0,9.0,36,0.00,,,0.00,235.000000,,2013-07-27 02:02:00,
2013-07-26 20:12:00,64.0,37.0,-100.00,ENE,68,2.0,9.0,36,0.00,,,0.00,235.000000,,2013-07-27 02:12:00,
2013-07-26 20:22:00,64.0,37.0,-100.00,ENE,68,2.0,9.0,36,0.00,,,0.00,235.000000,,2013-07-27 02:22:00,
2013-07-26 20:32:00,64.0,37.0,-100.00,ENE,68,2.0,9.0,36,0.00,,,0.00,235.000000,,2013-07-27 02:32:00,
2013-07-26 20:40:00,60.0,37.0,-100.00,SE,136,1.0,6.0,42,0.00,,,0.00,26.000000,,2013-07-27 02:40:00,
2013-07-26 21:03:00,60.0,37.0,-100.00,SE,136,1.0,6.0,42,0.00,,,0.00,26.000000,,2013-07-27 03:03:00,
2013-07-26 21:12:00,60.0,37.0,-100.00,SE,136,1.0,6.0,42,0.00,,,0.00,26.000000,,2013-07-27 03:12:00,
2013-07-26 21:22:00,60.0,37.0,-100.00,SE,136,1.0,6.0,42,0.00,,,0.00,26.000000,,2013-07-27 03:22:00,
2013-07-26 21:33:00,60.0,37.0,-100.00,SE,136,1.0,6.0,42,0.00,,,0.00,26.000000,,2013-07-27 03:33:00,
2013-07-26 21:40:00,59.0,39.0,-100.00,South,171,4.0,7.0,47,0.00,,,0.00,1.000000,,2013-07-27 03:40:00,
2013-07-26 22:02:00,59.0,39.0,-100.00,South,171,4.0,7.0,47,0.00,,,0.00,1.000000,,2013-07-27 04:02:00,
2013-07-26 22:12:00,59.0,39.0,-100.00,South,171,4.0,7.0,47,0.00,,,0.00,1.000000,,2013-07-27 04:12:00,
2013-07-26 22:22:00,59.0,39.0,-100.00,South,171,4.0,7.0,47,0.00,,,0.00,1.000000,,2013-07-27 04:22:00,
2013-07-26 22:32:00,59.0,39.0,-100.00,South,171,4.0,7.0,47,0.00,,,0.00,1.000000,,2013-07-27 04:32:00,
2013-07-26 22:40:00,57.0,39.0,-100.00,South,177,4.0,9.0,51,0.00,,,0.00,0.000000,,2013-07-27 04:40:00,
2013-07-26 23:12:00,57.0,39.0,-100.00,South,177,4.0,9.0,51,0.00,,,0.00,0.000000,,2013-07-27 05:12:00,
2013-07-26 23:22:00,57.0,39.0,-100.00,South,177,4.0,9.0,51,0.00,,,0.00,0.000000,,2013-07-27 05:22:00,
2013-07-26 23:32:00,57.0,39.0,-100.00,South,177,4.0,9.0,51,0.00,,,0.00,0.000000,,2013-07-27 05:32:00,
2013-07-26 23:40:00,56.0,37.0,-100.00,South,171,5.0,8.0,48,0.00,,,0.00,0.000000,,2013-07-27 05:40:00,